createdAt,value
2023-08-12T00:02:17.447Z,99133.28
2023-08-12T00:04:48.199Z,99132.56
2023-08-12T00:07:15.322Z,99121.94
2023-08-12T00:09:42.675Z,99121.47
2023-08-12T00:12:09.625Z,99118.19
2023-08-12T00:14:36.874Z,99115.91
2023-08-12T00:17:03.879Z,99119.81
2023-08-12T00:19:31.061Z,99120.91
2023-08-12T00:21:58.001Z,99121.88
2023-08-12T00:24:25.243Z,99118.59
2023-08-12T00:26:52.422Z,99126.78
2023-08-12T00:29:19.614Z,99121.78
2023-08-12T00:31:46.476Z,99114.88
2023-08-12T00:34:13.819Z,99117.81
2023-08-12T00:36:40.824Z,99116.09
2023-08-12T00:39:08.226Z,99126.97
2023-08-12T00:41:35.230Z,99125.00
2023-08-12T00:44:02.399Z,99114.41
2023-08-12T00:46:29.889Z,99109.28
2023-08-12T00:48:58.062Z,99103.31
2023-08-12T00:51:25.114Z,99102.72
2023-08-12T00:53:53.767Z,99103.81
2023-08-12T00:56:21.187Z,99120.06
2023-08-12T00:58:49.202Z,99107.75
2023-08-12T01:01:16.762Z,99098.22
2023-08-12T01:03:44.176Z,99094.09
2023-08-12T01:06:11.177Z,99096.91
2023-08-12T01:08:38.455Z,99103.53
2023-08-12T01:11:40.625Z,99093.03
2023-08-12T01:14:22.762Z,99098.31
2023-08-12T01:16:58.151Z,99086.25
2023-08-12T01:19:37.010Z,99086.88
2023-08-12T01:22:09.049Z,99095.75
2023-08-12T01:24:45.122Z,99094.69
2023-08-12T01:27:14.832Z,99097.25
2023-08-12T01:29:53.001Z,99104.69
2023-08-12T01:32:34.956Z,99095.38
2023-08-12T01:35:24.829Z,99095.53
2023-08-12T01:37:54.706Z,99087.72
2023-08-12T01:40:23.380Z,99090.53
2023-08-12T01:42:52.462Z,99089.41
2023-08-12T01:45:20.305Z,99101.03
2023-08-12T01:47:47.512Z,99093.09
2023-08-12T01:50:15.030Z,99093.34
2023-08-12T01:52:42.251Z,99098.22
2023-08-12T01:55:09.877Z,99097.63
2023-08-12T01:57:36.954Z,99095.44
2023-08-12T02:00:06.419Z,99096.91
2023-08-12T02:02:33.577Z,99098.75
2023-08-12T02:05:00.889Z,99097.97
2023-08-12T02:07:27.878Z,99096.41
2023-08-12T02:09:55.119Z,99092.13
2023-08-12T02:12:22.025Z,99089.34
2023-08-12T02:14:49.225Z,99087.38
2023-08-12T02:17:16.187Z,99095.69
2023-08-12T02:19:43.613Z,99091.41
2023-08-12T02:22:11.590Z,99091.66
2023-08-12T02:24:38.757Z,99085.69
2023-08-12T02:27:05.713Z,99081.44
2023-08-12T02:29:32.950Z,99075.47
2023-08-12T02:31:59.951Z,99079.22
2023-08-12T02:34:27.218Z,99072.41
2023-08-12T02:36:54.167Z,99084.47
2023-08-12T02:39:21.374Z,99079.97
2023-08-12T02:41:48.352Z,99079.13
2023-08-12T02:44:16.178Z,99080.47
2023-08-12T02:46:43.164Z,99084.22
2023-08-12T02:49:10.445Z,99083.13
2023-08-12T02:51:37.455Z,99080.91
2023-08-12T02:54:04.895Z,99077.03
2023-08-12T02:56:32.029Z,99079.72
2023-08-12T02:58:59.400Z,99074.84
2023-08-12T03:01:26.672Z,99077.00
2023-08-12T03:03:54.080Z,99082.25
2023-08-12T03:06:21.585Z,99071.75
2023-08-12T03:08:49.074Z,99074.66
2023-08-12T03:11:16.827Z,99074.53
2023-08-12T03:13:44.139Z,99080.31
2023-08-12T03:16:15.572Z,99078.75
2023-08-12T03:18:43.094Z,99075.53
2023-08-12T03:21:10.891Z,99086.50
2023-08-12T03:23:39.430Z,99079.41
2023-08-12T03:26:06.394Z,99076.84
2023-08-12T03:28:33.671Z,99080.41
2023-08-12T03:31:00.732Z,99076.97
2023-08-12T03:33:27.989Z,99070.75
2023-08-12T03:35:54.982Z,99080.75
2023-08-12T03:38:22.140Z,99082.56
2023-08-12T03:40:49.113Z,99083.31
2023-08-12T03:43:16.305Z,99088.56
2023-08-12T03:45:47.000Z,99077.34
2023-08-12T03:48:14.237Z,99075.75
2023-08-12T03:50:43.387Z,99077.69
2023-08-12T03:53:10.673Z,99074.78
2023-08-12T03:55:37.653Z,99071.59
2023-08-12T03:58:05.135Z,99069.16
2023-08-12T04:00:32.296Z,99078.25
2023-08-12T04:02:59.638Z,99074.97
2023-08-12T04:05:26.625Z,99064.50
2023-08-12T04:07:53.838Z,99079.59
2023-08-12T04:10:20.778Z,99076.44
2023-08-12T04:12:47.960Z,99073.13
2023-08-12T04:15:15.030Z,99075.19
2023-08-12T04:17:42.546Z,99079.66
2023-08-12T04:20:10.589Z,99075.44
2023-08-12T04:22:37.843Z,99072.13
2023-08-12T04:25:05.551Z,99077.47
2023-08-12T04:27:32.808Z,99069.69
2023-08-12T04:29:59.822Z,99069.78
2023-08-12T04:32:27.029Z,99074.19
2023-08-12T04:34:54.001Z,99072.13
2023-08-12T04:37:21.244Z,99072.63
2023-08-12T04:39:48.558Z,99068.97
2023-08-12T04:42:15.802Z,99075.09
2023-08-12T04:44:42.815Z,99068.13
2023-08-12T04:47:11.842Z,99068.47
2023-08-12T04:49:38.992Z,99070.28
2023-08-12T04:52:07.894Z,99064.81
2023-08-12T04:54:34.850Z,99065.22
2023-08-12T04:57:02.127Z,99063.16
2023-08-12T04:59:29.117Z,99068.50
2023-08-12T05:02:04.222Z,99058.41
2023-08-12T05:04:43.241Z,99055.63
2023-08-12T05:07:10.479Z,99064.16
2023-08-12T05:09:37.358Z,99065.59
2023-08-12T05:12:04.894Z,99063.69
2023-08-12T05:14:31.825Z,99071.09
2023-08-12T05:16:59.004Z,99076.00
2023-08-12T05:19:26.023Z,99073.59
2023-08-12T05:23:35.632Z,99073.88
2023-08-12T05:26:02.960Z,99070.19
2023-08-12T05:28:30.000Z,99075.44
2023-08-12T05:30:57.282Z,99072.63
2023-08-12T05:33:24.359Z,99066.06
2023-08-12T05:35:51.968Z,99067.41
2023-08-12T05:38:18.900Z,99061.53
2023-08-12T05:40:46.082Z,99061.78
2023-08-12T05:43:13.052Z,99055.84
2023-08-12T05:45:40.329Z,99055.94
2023-08-12T05:48:09.510Z,99058.59
2023-08-12T05:50:36.852Z,99062.75
2023-08-12T05:53:04.025Z,99057.38
2023-08-12T05:55:31.227Z,99057.25
2023-08-12T05:57:58.224Z,99058.59
2023-08-12T06:00:25.442Z,99061.38
2023-08-12T06:02:52.936Z,99058.34
2023-08-12T06:05:20.318Z,99039.28
2023-08-12T06:07:47.284Z,99051.13
2023-08-12T06:10:14.544Z,99043.38
2023-08-12T06:12:41.531Z,99050.94
2023-08-12T06:15:09.193Z,99055.69
2023-08-12T06:17:36.219Z,99046.63
2023-08-12T06:20:03.912Z,99053.47
2023-08-12T06:22:30.885Z,99053.00
2023-08-12T06:24:58.170Z,99054.56
2023-08-12T06:27:25.124Z,99052.22
2023-08-12T06:29:52.517Z,99051.25
2023-08-12T06:32:19.516Z,99046.84
2023-08-12T06:34:46.847Z,99044.75
2023-08-12T06:37:13.800Z,99048.88
2023-08-12T06:39:41.162Z,99050.78
2023-08-12T06:42:08.324Z,99044.44
2023-08-12T06:44:35.611Z,99049.69
2023-08-12T06:47:02.567Z,99047.84
2023-08-12T06:49:29.832Z,99056.50
2023-08-12T06:51:56.796Z,99043.38
2023-08-12T06:54:24.262Z,99042.78
2023-08-12T06:56:51.630Z,99049.19
2023-08-12T06:59:19.232Z,99044.84
2023-08-12T07:01:46.424Z,99044.31
2023-08-12T07:04:13.610Z,99040.38
2023-08-12T07:06:40.888Z,99039.97
2023-08-12T07:09:08.065Z,99040.81
2023-08-12T07:11:35.030Z,99044.09
2023-08-12T07:14:02.519Z,99045.41
2023-08-12T07:16:29.513Z,99035.81
2023-08-12T07:18:56.928Z,99036.13
2023-08-12T07:21:24.099Z,99028.50
2023-08-12T07:24:03.424Z,99032.59
2023-08-12T07:26:31.887Z,99029.53
2023-08-12T07:28:59.165Z,99030.09
2023-08-12T07:31:26.196Z,99022.22
2023-08-12T07:33:53.448Z,99027.75
2023-08-12T07:36:20.359Z,99025.50
2023-08-12T07:38:47.633Z,99034.69
2023-08-12T07:41:14.674Z,99018.72
2023-08-12T07:43:41.899Z,99022.69
2023-08-12T07:46:10.346Z,99023.84
2023-08-12T07:48:39.408Z,99016.78
2023-08-12T07:51:06.733Z,99018.75
2023-08-12T07:53:33.986Z,99015.38
2023-08-12T07:56:00.961Z,99012.13
2023-08-12T07:58:28.177Z,99006.13
2023-08-12T08:00:55.373Z,99008.31
2023-08-12T08:03:22.555Z,99014.81
2023-08-12T08:05:49.781Z,99014.25
2023-08-12T08:08:17.095Z,99017.09
2023-08-12T08:10:44.178Z,99004.88
2023-08-12T08:13:11.371Z,99001.28
2023-08-12T08:15:38.972Z,98998.16
2023-08-12T08:18:08.617Z,98999.59
2023-08-12T08:20:36.514Z,98998.56
2023-08-12T08:23:04.262Z,98993.44
2023-08-12T08:25:31.557Z,98993.59
2023-08-12T08:27:59.033Z,98996.41
2023-08-12T08:30:26.973Z,98983.84
2023-08-12T08:32:54.431Z,98982.53
2023-08-12T08:35:21.534Z,98987.91
2023-08-12T08:37:48.811Z,98984.47
2023-08-12T08:40:15.836Z,98981.00
2023-08-12T08:42:48.043Z,98984.78
2023-08-12T08:45:15.621Z,98984.03
2023-08-12T08:47:44.135Z,98977.03
2023-08-12T08:50:12.127Z,98974.75
2023-08-12T08:52:40.585Z,98969.59
2023-08-12T08:55:08.582Z,98979.63
2023-08-12T08:57:41.649Z,98970.44
2023-08-12T09:00:19.908Z,98978.31
2023-08-12T09:02:52.076Z,98973.97
2023-08-12T09:05:21.924Z,98970.97
2023-08-12T09:07:51.236Z,98971.34
2023-08-12T09:10:22.209Z,98968.72
2023-08-12T09:12:49.902Z,98970.81
2023-08-12T09:15:18.528Z,98964.63
2023-08-12T09:17:45.983Z,98972.94
2023-08-12T09:20:13.706Z,98966.75
2023-08-12T09:22:44.927Z,98967.81
2023-08-12T09:25:12.471Z,98959.75
2023-08-12T09:27:40.389Z,98954.22
2023-08-12T09:30:09.458Z,98956.97
2023-08-12T09:32:39.437Z,98942.47
2023-08-12T09:35:14.650Z,98938.66
2023-08-12T09:37:42.805Z,98938.50
2023-08-12T09:40:10.435Z,98935.34
2023-08-12T09:42:47.384Z,98938.78
2023-08-12T09:45:14.509Z,98932.16
2023-08-12T09:47:45.458Z,98921.38
2023-08-12T09:50:12.810Z,98929.50
2023-08-12T09:52:41.578Z,98922.78
2023-08-12T09:55:12.170Z,98920.41
2023-08-12T09:57:45.151Z,98921.09
2023-08-12T10:00:17.974Z,98912.63
2023-08-12T10:02:48.355Z,98911.97
2023-08-12T10:05:37.412Z,98909.22
2023-08-12T10:08:06.125Z,98908.88
2023-08-12T10:10:36.618Z,98900.25
2023-08-12T10:13:08.036Z,98904.47
2023-08-12T10:15:36.768Z,98902.28
2023-08-12T10:18:10.450Z,98898.03
2023-08-12T10:20:40.277Z,98895.69
2023-08-12T10:23:08.818Z,98890.91
2023-08-12T10:25:42.653Z,98894.59
2023-08-12T10:28:10.369Z,98889.50
2023-08-12T10:30:37.530Z,98877.47
2023-08-12T10:33:05.634Z,98883.25
2023-08-12T10:35:46.508Z,98879.28
2023-08-12T10:38:19.068Z,98879.06
2023-08-12T10:40:46.792Z,98875.19
2023-08-12T10:43:16.347Z,98880.06
2023-08-12T10:45:54.482Z,98879.56
2023-08-12T10:48:29.094Z,98875.44
2023-08-12T10:51:00.516Z,98883.53
2023-08-12T10:53:39.896Z,98879.47
2023-08-12T10:56:12.872Z,98865.47
2023-08-12T10:58:48.666Z,98865.28
2023-08-12T11:01:19.981Z,98865.91
2023-08-12T11:03:49.827Z,98857.88
2023-08-12T11:06:17.220Z,98855.50
2023-08-12T11:09:08.024Z,98848.38
2023-08-12T11:11:35.636Z,98851.78
2023-08-12T11:14:15.573Z,98849.88
2023-08-12T11:16:44.457Z,98841.31
2023-08-12T11:19:11.956Z,98837.88
2023-08-12T11:21:41.200Z,98838.72
2023-08-12T11:24:09.276Z,98839.19
2023-08-12T11:26:36.222Z,98826.75
2023-08-12T11:29:11.363Z,98835.38
2023-08-12T11:31:38.531Z,98832.56
2023-08-12T11:34:06.870Z,98839.34
2023-08-12T11:36:34.038Z,98832.69
2023-08-12T11:39:03.200Z,98830.94
2023-08-12T11:41:30.139Z,98828.00
2023-08-12T11:43:57.294Z,98815.28
2023-08-12T11:46:24.430Z,98818.78
2023-08-12T11:48:52.230Z,98818.03
2023-08-12T11:51:19.618Z,98807.25
2023-08-12T11:53:47.006Z,98801.06
2023-08-12T11:56:14.077Z,98793.25
2023-08-12T11:58:52.506Z,98789.41
2023-08-12T12:01:22.759Z,98787.72
2023-08-12T12:03:53.663Z,98785.00
2023-08-12T12:06:41.063Z,98785.66
2023-08-12T12:09:11.239Z,98784.44
2023-08-12T12:11:48.446Z,98789.69
2023-08-12T12:14:15.749Z,98784.06
2023-08-12T12:16:49.532Z,98778.63
2023-08-12T12:19:21.795Z,98765.66
2023-08-12T12:21:52.701Z,98771.22
2023-08-12T12:24:21.734Z,98770.06
2023-08-12T12:26:48.781Z,98771.84
2023-08-12T12:29:16.060Z,98782.13
2023-08-12T12:31:43.217Z,98773.13
2023-08-12T12:34:10.635Z,98772.16
2023-08-12T12:36:40.256Z,98763.13
2023-08-12T12:39:09.114Z,98754.97
2023-08-12T12:41:36.224Z,98760.69
2023-08-12T12:44:04.242Z,98753.69
2023-08-12T12:46:31.543Z,98760.19
2023-08-12T12:48:58.780Z,98756.22
2023-08-12T12:51:25.706Z,98748.91
2023-08-12T12:53:53.449Z,98757.50
2023-08-12T12:56:20.387Z,98760.88
2023-08-12T12:58:48.402Z,98749.16
2023-08-12T13:01:15.528Z,98762.78
2023-08-12T13:03:43.019Z,98755.25
2023-08-12T13:06:10.115Z,98749.44
2023-08-12T13:08:37.503Z,98749.63
2023-08-12T13:11:04.604Z,98751.13
2023-08-12T13:13:31.942Z,98750.34
2023-08-12T13:15:59.039Z,98738.41
2023-08-12T13:18:26.392Z,98735.31
2023-08-12T13:20:53.436Z,98729.72
2023-08-12T13:23:20.831Z,98734.34
2023-08-12T13:25:48.335Z,98726.28
2023-08-12T13:28:15.771Z,98720.63
2023-08-12T13:30:42.937Z,98716.47
2023-08-12T13:33:10.337Z,98717.75
2023-08-12T13:35:37.347Z,98709.66
2023-08-12T13:38:06.831Z,98705.19
2023-08-12T13:40:33.788Z,98694.31
2023-08-12T13:43:01.097Z,98694.06
2023-08-12T13:45:28.206Z,98691.50
2023-08-12T13:47:55.755Z,98696.69
2023-08-12T13:50:22.987Z,98696.84
2023-08-12T13:52:51.566Z,98697.84
2023-08-12T13:55:18.777Z,98697.16
2023-08-12T13:57:46.443Z,98692.94
2023-08-12T14:00:15.628Z,98690.63
2023-08-12T14:02:43.032Z,98694.41
2023-08-12T14:05:11.693Z,98697.94
2023-08-12T14:07:39.024Z,98689.78
2023-08-12T14:10:07.059Z,98692.50
2023-08-12T14:12:34.406Z,98692.88
2023-08-12T14:15:02.607Z,98688.50
2023-08-12T14:17:29.838Z,98685.09
2023-08-12T14:19:57.025Z,98690.16
2023-08-12T14:22:25.721Z,98687.44
2023-08-12T14:24:53.007Z,98687.50
2023-08-12T14:27:20.674Z,98675.53
2023-08-12T14:29:47.957Z,98678.06
2023-08-12T14:32:17.212Z,98674.28
2023-08-12T14:34:46.484Z,98677.66
2023-08-12T14:37:14.492Z,98667.78
2023-08-12T14:39:41.957Z,98665.50
2023-08-12T14:42:11.069Z,98668.44
2023-08-12T14:44:38.038Z,98667.22
2023-08-12T14:47:06.056Z,98670.56
2023-08-12T14:49:33.011Z,98667.47
2023-08-12T14:52:00.254Z,98652.56
2023-08-12T14:54:27.191Z,98653.44
2023-08-12T14:56:54.559Z,98653.84
2023-08-12T14:59:21.498Z,98651.91
2023-08-12T15:01:48.803Z,98646.88
2023-08-12T15:04:15.784Z,98648.19
2023-08-12T15:06:43.004Z,98650.28
2023-08-12T15:09:10.716Z,98646.34
2023-08-12T15:11:38.181Z,98646.78
2023-08-12T15:14:06.016Z,98643.22
2023-08-12T15:16:33.294Z,98637.34
2023-08-12T15:19:00.560Z,98643.41
2023-08-12T15:21:27.897Z,98635.25
2023-08-12T15:23:54.957Z,98637.56
2023-08-12T15:26:23.639Z,98635.09
2023-08-12T15:28:51.022Z,98637.66
2023-08-12T15:31:18.510Z,98637.91
2023-08-12T15:33:45.438Z,98632.69
2023-08-12T15:36:12.631Z,98631.88
2023-08-12T15:38:42.327Z,98620.97
2023-08-12T15:41:15.949Z,98613.47
2023-08-12T15:43:44.176Z,98610.53
2023-08-12T15:46:11.990Z,98603.41
2023-08-12T15:48:39.252Z,98606.97
2023-08-12T15:51:06.625Z,98600.47
2023-08-12T15:53:33.727Z,98599.22
2023-08-12T15:56:01.202Z,98597.41
2023-08-12T15:58:28.302Z,98598.78
2023-08-12T16:00:55.649Z,98603.84
2023-08-12T16:03:22.841Z,98599.84
2023-08-12T16:05:50.158Z,98602.34
2023-08-12T16:08:18.269Z,98603.06
2023-08-12T16:10:45.516Z,98596.88
2023-08-12T16:13:12.545Z,98610.31
2023-08-12T16:15:39.896Z,98608.50
2023-08-12T16:18:06.919Z,98618.72
2023-08-12T16:20:34.269Z,98618.28
2023-08-12T16:23:01.395Z,98618.31
2023-08-12T16:25:28.642Z,98630.28
2023-08-12T16:27:55.645Z,98635.03
2023-08-12T16:30:22.848Z,98629.44
2023-08-12T16:32:49.850Z,98626.09
2023-08-12T16:35:17.228Z,98621.06
2023-08-12T16:37:44.302Z,98623.78
2023-08-12T16:40:12.299Z,98618.31
2023-08-12T16:42:39.267Z,98618.28
2023-08-12T16:45:07.415Z,98620.31
2023-08-12T16:47:34.547Z,98621.31
2023-08-12T16:50:02.159Z,98616.88
2023-08-12T16:52:29.321Z,98614.72
2023-08-12T16:54:57.057Z,98604.56
2023-08-12T16:57:24.155Z,98608.09
2023-08-12T16:59:51.588Z,98613.06
2023-08-12T17:02:18.660Z,98609.84
2023-08-12T17:04:45.856Z,98602.22
2023-08-12T17:07:12.858Z,98603.59
2023-08-12T17:09:40.358Z,98607.31
2023-08-12T17:12:08.991Z,98603.06
2023-08-12T17:14:36.423Z,98601.13
2023-08-12T17:17:04.293Z,98609.44
2023-08-12T17:19:31.847Z,98613.59
2023-08-12T17:21:59.200Z,98618.78
2023-08-12T17:24:29.019Z,98623.97
2023-08-12T17:26:56.163Z,98626.41
2023-08-12T17:29:23.423Z,98629.56
2023-08-12T17:31:50.409Z,98630.09
2023-08-12T17:34:18.067Z,98634.03
2023-08-12T17:36:45.368Z,98630.88
2023-08-12T17:39:12.769Z,98633.31
2023-08-12T17:41:40.153Z,98633.72
2023-08-12T17:44:07.622Z,98632.81
2023-08-12T17:46:35.309Z,98629.63
2023-08-12T17:49:03.197Z,98637.34
2023-08-12T17:51:30.312Z,98639.41
2023-08-12T17:53:57.781Z,98628.91
2023-08-12T17:56:24.938Z,98634.91
2023-08-12T17:58:52.281Z,98629.22
2023-08-12T18:01:19.591Z,98622.50
2023-08-12T18:03:47.237Z,98629.97
2023-08-12T18:06:14.423Z,98628.69
2023-08-12T18:08:41.996Z,98629.06
2023-08-12T18:11:09.229Z,98632.97
2023-08-12T18:13:36.855Z,98637.75
2023-08-12T18:16:04.608Z,98657.72
2023-08-12T18:18:32.129Z,98674.97
2023-08-12T18:20:59.224Z,98676.19
2023-08-12T18:23:26.737Z,98677.22
2023-08-12T18:25:53.882Z,98681.63
2023-08-12T18:28:21.292Z,98679.09
2023-08-12T18:30:48.448Z,98687.81
2023-08-12T18:33:15.927Z,98686.22
2023-08-12T18:35:44.889Z,98693.72
2023-08-12T18:38:12.489Z,98703.63
2023-08-12T18:40:39.540Z,98706.06
2023-08-12T18:43:07.208Z,98708.13
2023-08-12T18:45:34.330Z,98712.44
2023-08-12T18:48:01.751Z,98716.69
2023-08-12T18:50:28.913Z,98715.00
2023-08-12T18:52:56.184Z,98724.53
2023-08-12T18:55:23.336Z,98729.66
2023-08-12T18:57:51.495Z,98732.75
2023-08-12T19:00:20.718Z,98734.81
2023-08-12T19:02:48.076Z,98742.66
2023-08-12T19:05:15.293Z,98748.84
2023-08-12T19:07:42.579Z,98762.94
2023-08-12T19:10:10.475Z,98760.75
2023-08-12T19:12:38.212Z,98757.75
2023-08-12T19:15:06.241Z,98761.34
2023-08-12T19:17:33.641Z,98764.63
2023-08-12T19:20:00.779Z,98761.75
2023-08-12T19:22:28.655Z,98761.13
2023-08-12T19:24:55.892Z,98754.06
2023-08-12T19:27:25.099Z,98752.06
2023-08-12T19:29:52.174Z,98742.09
2023-08-12T19:32:19.597Z,98744.50
2023-08-12T19:34:46.712Z,98737.75
2023-08-12T19:37:14.002Z,98737.06
2023-08-12T19:39:41.103Z,98743.22
2023-08-12T19:42:08.461Z,98754.56
2023-08-12T19:44:35.703Z,98759.81
2023-08-12T19:47:03.227Z,98753.56
2023-08-12T19:49:30.689Z,98757.63
2023-08-12T19:51:58.072Z,98753.25
2023-08-12T19:54:25.126Z,98747.69
2023-08-12T19:56:52.518Z,98741.28
2023-08-12T19:59:19.685Z,98727.25
2023-08-12T20:01:47.156Z,98720.66
2023-08-12T20:04:14.271Z,98710.31
2023-08-12T20:06:41.860Z,98719.81
2023-08-12T20:09:08.837Z,98726.41
2023-08-12T20:11:36.118Z,98732.69
2023-08-12T20:14:03.275Z,98735.59
2023-08-12T20:16:30.669Z,98740.50
2023-08-12T20:18:57.920Z,98717.97
2023-08-12T20:21:25.314Z,98717.97
2023-08-12T20:23:53.325Z,98721.38
2023-08-12T20:26:23.880Z,98734.94
2023-08-12T20:28:53.414Z,98730.50
2023-08-12T20:31:23.938Z,98727.28
2023-08-12T20:33:51.084Z,98727.78
2023-08-12T20:36:19.744Z,98728.31
2023-08-12T20:38:47.968Z,98735.06
2023-08-12T20:41:15.322Z,98738.97
2023-08-12T20:43:42.846Z,98738.28
2023-08-12T20:46:10.609Z,98737.78
2023-08-12T20:48:37.838Z,98744.22
2023-08-12T20:51:05.391Z,98756.22
2023-08-12T20:53:35.838Z,98749.13
2023-08-12T20:56:03.012Z,98743.88
2023-08-12T20:58:30.081Z,98743.38
2023-08-12T21:00:57.483Z,98746.09
2023-08-12T21:03:25.157Z,98755.38
2023-08-12T21:05:52.968Z,98755.19
2023-08-12T21:08:20.061Z,98759.09
2023-08-12T21:10:55.194Z,98765.78
2023-08-12T21:13:22.828Z,98761.25
2023-08-12T21:15:50.168Z,98757.50
2023-08-12T21:18:17.263Z,98758.81
2023-08-12T21:20:44.995Z,98759.66
2023-08-12T21:23:12.096Z,98767.22
2023-08-12T21:25:39.449Z,98775.13
2023-08-12T21:28:07.397Z,98786.41
2023-08-12T21:30:34.960Z,98793.16
2023-08-12T21:33:02.214Z,98787.38
2023-08-12T21:35:29.639Z,98785.66
2023-08-12T21:37:57.793Z,98790.03
2023-08-12T21:40:25.885Z,98799.59
2023-08-12T21:42:54.106Z,98801.94
2023-08-12T21:45:21.510Z,98809.84
2023-08-12T21:47:49.202Z,98802.06
2023-08-12T21:50:16.754Z,98814.88
2023-08-12T21:52:43.887Z,98821.22
2023-08-12T21:55:11.286Z,98809.06
2023-08-12T21:57:38.334Z,98808.34
2023-08-12T22:00:12.522Z,98810.00
2023-08-12T22:02:39.833Z,98817.88
2023-08-12T22:05:07.945Z,98812.94
2023-08-12T22:07:35.098Z,98810.69
2023-08-12T22:10:03.886Z,98815.56
2023-08-12T22:12:31.101Z,98816.41
2023-08-12T22:14:58.540Z,98822.41
2023-08-12T22:17:25.817Z,98822.25
2023-08-12T22:19:53.271Z,98821.56
2023-08-12T22:22:20.779Z,98824.97
2023-08-12T22:24:49.109Z,98836.97
2023-08-12T22:27:16.267Z,98836.28
2023-08-12T22:29:43.826Z,98835.75
2023-08-12T22:32:11.389Z,98833.06
2023-08-12T22:34:39.068Z,98839.44
2023-08-12T22:37:06.264Z,98840.63
2023-08-12T22:39:33.650Z,98836.38
2023-08-12T22:42:00.655Z,98834.84
2023-08-12T22:44:28.073Z,98845.69
2023-08-12T22:46:55.207Z,98848.03
2023-08-12T22:49:22.569Z,98853.31
2023-08-12T22:51:49.799Z,98846.16
2023-08-12T22:54:17.192Z,98838.66
2023-08-12T22:56:44.446Z,98837.28
2023-08-12T22:59:11.852Z,98838.88
2023-08-12T23:01:38.827Z,98824.13
2023-08-12T23:04:06.855Z,98826.97
2023-08-12T23:06:33.935Z,98831.00
2023-08-12T23:09:01.308Z,98831.00
2023-08-12T23:11:29.068Z,98832.81
2023-08-12T23:13:56.396Z,98828.75
2023-08-12T23:16:23.873Z,98829.72
2023-08-12T23:18:51.280Z,98818.09
2023-08-12T23:21:18.492Z,98823.94
2023-08-12T23:23:45.832Z,98826.09
2023-08-12T23:26:12.902Z,98825.25
2023-08-12T23:28:40.203Z,98826.09
2023-08-12T23:31:07.355Z,98834.31
2023-08-12T23:33:34.706Z,98828.38
2023-08-12T23:36:01.826Z,98824.16
2023-08-12T23:38:29.235Z,98827.69
2023-08-12T23:40:56.383Z,98825.69
2023-08-12T23:43:23.880Z,98832.78
2023-08-12T23:45:50.898Z,98837.16
2023-08-12T23:48:18.242Z,98836.19
2023-08-12T23:50:45.376Z,98831.94
2023-08-12T23:53:12.767Z,98832.00
2023-08-12T23:55:39.820Z,98827.44
2023-08-12T23:58:07.221Z,98829.72
